Time;durP1;ratioP1;P1;durP2;ratioP2;P2;SDS_P1;SDS_P2;PMS_P1;PMS_P2;Temp;Humidity;BMP_temperature;BMP_pressure;BME280_temperature;BME280_humidity;BME280_pressure;Samples;Min_cycle;Max_cycle;Signal;HPM_P1;HPM_P2
2022/07/04 00:00:59;;;;;;;;;;;;;;;14.83;100.00;99423.03;5096035;28;19931;-79
2022/07/04 00:03:28;;;;;;;;;;;;;;;15.02;100.00;99429.75;5097148;28;19925;-79
2022/07/04 00:05:55;;;;;;;;;;;;;;;15.12;100.00;99420.22;5096881;28;19950;-79
2022/07/04 00:08:22;;;;;;;;;;;;;;;14.97;100.00;99422.66;5095928;28;19990;-79
2022/07/04 00:10:49;;;;;;;;;;;;;;;15.26;100.00;99417.78;5112939;28;20471;-79
2022/07/04 00:13:16;;;;;;;;;;;;;;;15.13;100.00;99416.94;5096863;28;20019;-80
2022/07/04 00:15:44;;;;;;;;;;;;;;;15.06;100.00;99410.72;5095743;28;20333;-79
2022/07/04 00:18:11;;;;;;;;;;;;;;;15.14;100.00;99403.69;5095908;28;19928;-79
2022/07/04 00:20:38;;;;;;;;;;;;;;;15.16;100.00;99402.00;5095455;28;20013;-79
2022/07/04 00:23:05;;;;;;;;;;;;;;;15.03;100.00;99403.19;5095640;28;20002;-79
2022/07/04 00:25:32;;;;;;;;;;;;;;;15.02;100.00;99391.16;5096581;28;20371;-79
2022/07/04 00:27:59;;;;;;;;;;;;;;;14.91;100.00;99396.28;5095569;28;19933;-79
2022/07/04 00:30:27;;;;;;;;;;;;;;;14.78;100.00;99389.84;5095507;28;19928;-79
2022/07/04 00:32:54;;;;;;;;;;;;;;;14.86;100.00;99388.38;5095226;28;19925;-79
2022/07/04 00:35:21;;;;;;;;;;;;;;;14.75;100.00;99390.72;5096371;28;19924;-79
2022/07/04 00:37:48;;;;;;;;;;;;;;;14.84;100.00;99379.63;5078482;28;19923;-79
2022/07/04 00:40:16;;;;;;;;;;;;;;;14.87;100.00;99389.97;5078601;28;19927;-79
2022/07/04 00:42:43;;;;;;;;;;;;;;;14.90;100.00;99377.03;5095648;27;19924;-79
2022/07/04 00:45:10;;;;;;;;;;;;;;;15.07;100.00;99373.72;5095049;28;19923;-79
2022/07/04 00:47:37;;;;;;;;;;;;;;;15.02;100.00;99371.47;5094955;28;19924;-79
2022/07/04 00:50:05;;;;;;;;;;;;;;;15.29;100.00;99348.53;5096218;28;20417;-80
2022/07/04 00:52:32;;;;;;;;;;;;;;;15.42;100.00;99347.34;5096507;28;19924;-80
2022/07/04 00:55:00;;;;;;;;;;;;;;;15.42;100.00;99344.53;5112164;27;20027;-80
2022/07/04 00:57:27;;;;;;;;;;;;;;;15.30;100.00;99347.28;5096443;28;19930;-79
2022/07/04 00:59:54;;;;;;;;;;;;;;;15.10;100.00;99363.59;5096282;28;19924;-79
2022/07/04 01:02:22;;;;;;;;;;;;;;;14.94;100.00;99349.59;5096027;28;19997;-80
2022/07/04 01:04:49;;;;;;;;;;;;;;;15.30;100.00;99341.66;5094385;28;19930;-79
2022/07/04 01:07:16;;;;;;;;;;;;;;;15.37;100.00;99336.63;5095992;28;19935;-79
2022/07/04 01:09:44;;;;;;;;;;;;;;;15.23;100.00;99328.63;5094615;28;19928;-78
2022/07/04 01:12:11;;;;;;;;;;;;;;;14.97;100.00;99331.81;5076072;28;20000;-79
2022/07/04 01:14:38;;;;;;;;;;;;;;;14.91;100.00;99336.41;5095787;28;19924;-79
2022/07/04 01:17:06;;;;;;;;;;;;;;;14.81;100.00;99343.94;5094402;28;19935;-79
2022/07/04 01:19:33;;;;;;;;;;;;;;;15.03;100.00;99339.25;5095496;28;20269;-79
2022/07/04 01:22:05;;;;;;;;;;;;;;;15.08;100.00;99349.19;5077854;28;20378;-79
2022/07/04 01:24:32;;;;;;;;;;;;;;;14.93;100.00;99354.44;5094359;28;19928;-79
2022/07/04 01:26:59;;;;;;;;;;;;;;;14.88;100.00;99363.41;5094253;28;19973;-79
2022/07/04 01:29:26;;;;;;;;;;;;;;;14.82;100.00;99370.81;5094262;28;19973;-79
2022/07/04 01:31:54;;;;;;;;;;;;;;;14.92;100.00;99374.59;5093924;28;20412;-79
2022/07/04 01:34:21;;;;;;;;;;;;;;;15.08;100.00;99369.69;5077512;28;19924;-79
2022/07/04 01:36:48;;;;;;;;;;;;;;;15.04;100.00;99371.78;5095416;28;19923;-79
2022/07/04 01:39:16;;;;;;;;;;;;;;;15.03;100.00;99373.03;5095268;28;19925;-79
2022/07/04 01:41:43;;;;;;;;;;;;;;;15.23;100.00;99378.47;5094089;28;19924;-78
2022/07/04 01:44:10;;;;;;;;;;;;;;;15.04;100.00;99377.41;5093866;28;20394;-78
2022/07/04 01:46:37;;;;;;;;;;;;;;;15.24;100.00;99389.28;5093858;28;20022;-79
2022/07/04 01:49:04;;;;;;;;;;;;;;;15.22;100.00;99377.69;5094961;28;20349;-79
2022/07/04 01:51:31;;;;;;;;;;;;;;;15.19;100.00;99375.75;5095170;28;19947;-79
2022/07/04 01:53:58;;;;;;;;;;;;;;;15.10;100.00;99358.75;5093952;28;20086;-79
2022/07/04 01:56:25;;;;;;;;;;;;;;;15.27;100.00;99362.25;5093590;28;19924;-79
2022/07/04 01:58:53;;;;;;;;;;;;;;;15.37;100.00;99352.72;5093641;28;19970;-78
2022/07/04 02:01:32;;;;;;;;;;;;;;;15.21;100.00;99353.59;5093608;28;19931;-79
2022/07/04 02:04:00;;;;;;;;;;;;;;;14.72;100.00;99351.44;5076780;28;20023;-79
2022/07/04 02:06:28;;;;;;;;;;;;;;;15.14;100.00;99353.00;5093565;28;19924;-79
2022/07/04 02:14:26;;;;;;;;;;;;;;;14.87;100.00;99333.72;5094693;28;19931;-78
2022/07/04 02:16:53;;;;;;;;;;;;;;;14.84;100.00;99345.06;5092893;28;19924;-79
2022/07/04 02:19:20;;;;;;;;;;;;;;;14.97;100.00;99341.06;5093525;28;20007;-79
2022/07/04 02:21:48;;;;;;;;;;;;;;;15.04;100.00;99335.19;5076831;28;19924;-79
2022/07/04 02:24:16;;;;;;;;;;;;;;;15.06;100.00;99335.56;5093549;28;19939;-79
2022/07/04 02:26:43;;;;;;;;;;;;;;;14.67;100.00;99340.72;5093380;28;19924;-79
2022/07/04 02:29:10;;;;;;;;;;;;;;;14.93;100.00;99331.13;5093486;28;20367;-79
2022/07/04 02:31:37;;;;;;;;;;;;;;;14.89;100.00;99328.41;5093230;28;19951;-79
2022/07/04 02:34:06;;;;;;;;;;;;;;;15.11;100.00;99323.75;5093947;28;21395;-79
2022/07/04 02:36:33;;;;;;;;;;;;;;;15.13;100.00;99329.69;5094716;28;19931;-79
2022/07/04 02:39:01;;;;;;;;;;;;;;;15.07;100.00;99344.78;5076404;28;20355;-79
2022/07/04 02:41:28;;;;;;;;;;;;;;;14.80;100.00;99339.53;5059900;28;19924;-79
2022/07/04 02:43:55;;;;;;;;;;;;;;;14.76;100.00;99338.84;5093346;28;19924;-79
2022/07/04 02:46:22;;;;;;;;;;;;;;;15.09;100.00;99333.88;5094159;28;19924;-79
2022/07/04 02:48:49;;;;;;;;;;;;;;;14.66;100.00;99339.91;5094638;28;20363;-79
2022/07/04 02:51:17;;;;;;;;;;;;;;;14.33;100.00;99344.06;5094527;28;19935;-79
2022/07/04 02:53:43;;;;;;;;;;;;;;;14.33;100.00;99346.88;5093254;28;19931;-79
2022/07/04 02:56:10;;;;;;;;;;;;;;;14.38;100.00;99338.69;5093074;28;19924;-79
2022/07/04 02:58:38;;;;;;;;;;;;;;;14.44;100.00;99339.75;5093016;28;19924;-79
2022/07/04 03:01:05;;;;;;;;;;;;;;;14.56;100.00;99341.03;5093108;28;20390;-79
2022/07/04 03:03:33;;;;;;;;;;;;;;;14.40;100.00;99338.25;5059737;28;19928;-79
2022/07/04 03:06:00;;;;;;;;;;;;;;;14.51;100.00;99335.16;5076286;28;20023;-79
2022/07/04 03:08:30;;;;;;;;;;;;;;;14.40;100.00;99344.66;5094314;28;19930;-79
2022/07/04 03:10:57;;;;;;;;;;;;;;;14.49;100.00;99336.38;5076263;28;19924;-79
2022/07/04 03:13:24;;;;;;;;;;;;;;;14.48;100.00;99338.84;5092855;28;20282;-79
2022/07/04 03:15:52;;;;;;;;;;;;;;;14.50;100.00;99339.97;5076142;28;19931;-79
2022/07/04 03:18:19;;;;;;;;;;;;;;;14.57;100.00;99336.97;5092923;28;19930;-79
2022/07/04 03:20:46;;;;;;;;;;;;;;;14.71;100.00;99335.81;5092964;28;20267;-79
2022/07/04 03:23:13;;;;;;;;;;;;;;;14.63;100.00;99340.81;5092906;28;19928;-79
2022/07/04 03:25:41;;;;;;;;;;;;;;;14.64;100.00;99333.97;5094135;28;19989;-79
2022/07/04 03:28:09;;;;;;;;;;;;;;;14.96;100.00;99330.25;5097746;28;20002;-79
2022/07/04 03:30:36;;;;;;;;;;;;;;;14.72;100.00;99332.53;5079704;28;19957;-79
2022/07/04 03:33:03;;;;;;;;;;;;;;;14.77;100.00;99340.41;5097912;28;19928;-79
2022/07/04 03:35:30;;;;;;;;;;;;;;;14.71;100.00;99333.75;5097806;28;19924;-78
2022/07/04 03:37:57;;;;;;;;;;;;;;;14.59;100.00;99337.31;5046988;28;19924;-79
2022/07/04 03:40:25;;;;;;;;;;;;;;;14.52;100.00;99341.09;5096832;28;19924;-79
2022/07/04 03:42:52;;;;;;;;;;;;;;;14.62;100.00;99344.06;5096425;28;19924;-79
2022/07/04 03:45:19;;;;;;;;;;;;;;;14.46;100.00;99342.09;5096103;28;19924;-79
2022/07/04 03:47:46;;;;;;;;;;;;;;;14.53;100.00;99336.28;5097737;28;19950;-79
2022/07/04 03:50:13;;;;;;;;;;;;;;;14.62;100.00;99344.88;5096420;28;19931;-79
2022/07/04 03:52:40;;;;;;;;;;;;;;;14.67;100.00;99357.59;5113587;28;20310;-79
2022/07/04 03:55:08;;;;;;;;;;;;;;;14.71;100.00;99352.69;5096476;28;19963;-79
2022/07/04 03:57:35;;;;;;;;;;;;;;;14.57;100.00;99353.06;5079090;28;19924;-79
2022/07/04 04:00:03;;;;;;;;;;;;;;;14.60;100.00;99352.19;5097338;28;19924;-79
2022/07/04 04:02:38;;;;;;;;;;;;;;;14.48;100.00;99357.28;5097389;28;19924;-79
2022/07/04 04:05:26;;;;;;;;;;;;;;;14.73;100.00;99361.44;5097337;28;19924;-79
2022/07/04 04:07:54;;;;;;;;;;;;;;;14.72;100.00;99352.25;5130416;27;19930;-79
2022/07/04 04:10:21;;;;;;;;;;;;;;;15.00;100.00;99359.84;5062818;28;19924;-79
2022/07/04 04:14:10;;;;;;;;;;;;;;;15.17;100.00;99358.56;5111880;27;19913;-79
2022/07/04 04:16:38;;;;;;;;;;;;;;;15.13;100.00;99360.66;5110690;28;20056;-79
2022/07/04 04:19:05;;;;;;;;;;;;;;;15.16;100.00;99354.13;5093771;28;20264;-79
2022/07/04 04:21:32;;;;;;;;;;;;;;;15.21;100.00;99347.97;5093995;28;19928;-79
2022/07/04 04:24:00;;;;;;;;;;;;;;;15.20;100.00;99363.28;5127783;27;19930;-79
2022/07/04 04:26:28;;;;;;;;;;;;;;;15.03;100.00;99356.16;5093841;28;20264;-79
2022/07/04 04:28:55;;;;;;;;;;;;;;;15.17;100.00;99358.56;5093776;28;19931;-80
2022/07/04 04:31:22;;;;;;;;;;;;;;;15.15;100.00;99355.38;5110614;28;20378;-81
2022/07/04 04:33:49;;;;;;;;;;;;;;;15.13;100.00;99352.22;5094234;28;20031;-81
2022/07/04 04:36:16;;;;;;;;;;;;;;;15.11;100.00;99351.09;5110609;28;19939;-81
2022/07/04 04:38:43;;;;;;;;;;;;;;;15.15;100.00;99358.19;5111737;28;19924;-81
2022/07/04 04:41:10;;;;;;;;;;;;;;;15.17;100.00;99355.75;5111486;28;19930;-81
2022/07/04 04:43:37;;;;;;;;;;;;;;;14.97;100.00;99355.13;5059930;28;20359;-81
2022/07/04 04:46:05;;;;;;;;;;;;;;;14.96;100.00;99350.75;5111611;28;19931;-81
2022/07/04 04:48:32;;;;;;;;;;;;;;;15.08;100.00;99332.28;5111749;28;19928;-81
2022/07/04 04:50:59;;;;;;;;;;;;;;;15.16;100.00;99336.47;5093332;28;19928;-81
2022/07/04 04:53:27;;;;;;;;;;;;;;;14.92;100.00;99341.59;5093244;28;19931;-81
2022/07/04 04:55:54;;;;;;;;;;;;;;;14.98;100.00;99345.44;5093322;28;20028;-81
2022/07/04 04:58:22;;;;;;;;;;;;;;;14.95;100.00;99349.13;5076441;28;20381;-81
2022/07/04 05:00:49;;;;;;;;;;;;;;;14.65;100.00;99355.22;5093376;28;19943;-81
2022/07/04 05:03:36;;;;;;;;;;;;;;;14.81;100.00;99357.22;5093459;28;19970;-81
2022/07/04 05:06:03;;;;;;;;;;;;;;;14.63;100.00;99362.53;5111236;28;19924;-81
2022/07/04 05:08:30;;;;;;;;;;;;;;;14.98;100.00;99359.50;5093179;28;19928;-81
2022/07/04 05:10:58;;;;;;;;;;;;;;;14.98;100.00;99356.69;5109476;28;19936;-81
2022/07/04 05:13:25;;;;;;;;;;;;;;;15.13;100.00;99360.66;5127014;28;20058;-81
2022/07/04 05:15:52;;;;;;;;;;;;;;;14.94;100.00;99358.81;5109555;28;20012;-81
2022/07/04 05:18:19;;;;;;;;;;;;;;;14.69;100.00;99360.75;5093074;28;19924;-81
2022/07/04 05:20:46;;;;;;;;;;;;;;;14.78;100.00;99366.53;5111111;28;19969;-81
2022/07/04 05:23:13;;;;;;;;;;;;;;;14.76;100.00;99361.34;5110886;28;19924;-80
2022/07/04 05:25:40;;;;;;;;;;;;;;;14.95;100.00;99360.41;5078403;28;20268;-80
2022/07/04 05:28:09;;;;;;;;;;;;;;;15.08;100.00;99354.81;5112743;28;19928;-81
2022/07/04 05:30:36;;;;;;;;;;;;;;;15.02;100.00;99353.78;5096015;28;19924;-81
2022/07/04 05:33:28;;;;;;;;;;;;;;;14.84;100.00;99351.50;5112723;28;20298;-80
2022/07/04 05:35:55;;;;;;;;;;;;;;;14.81;100.00;99346.75;5079496;28;19924;-81
2022/07/04 05:38:22;;;;;;;;;;;;;;;14.78;100.00;99347.66;5112795;28;19935;-81
2022/07/04 05:40:49;;;;;;;;;;;;;;;14.99;100.00;99341.41;5062228;28;19950;-81
2022/07/04 05:43:17;;;;;;;;;;;;;;;15.08;100.00;99346.38;5096869;28;20363;-81
2022/07/04 05:45:44;;;;;;;;;;;;;;;15.01;100.00;99324.84;5096974;28;19931;-81
2022/07/04 05:48:11;;;;;;;;;;;;;;;15.08;100.00;99327.47;5078898;28;19924;-80
2022/07/04 05:50:38;;;;;;;;;;;;;;;14.99;100.00;99335.78;5095725;28;20275;-81
2022/07/04 05:53:05;;;;;;;;;;;;;;;14.64;100.00;99339.59;5078701;28;19924;-83
2022/07/04 05:55:33;;;;;;;;;;;;;;;14.70;100.00;99346.25;5078503;28;20362;-81
2022/07/04 05:58:01;;;;;;;;;;;;;;;14.80;100.00;99350.00;5096758;28;20240;-81
2022/07/04 06:00:28;;;;;;;;;;;;;;;14.75;100.00;99342.91;5096822;28;19924;-82
2022/07/04 06:02:55;;;;;;;;;;;;;;;14.45;100.00;99343.31;5061943;28;19924;-82
2022/07/04 06:05:22;;;;;;;;;;;;;;;14.46;100.00;99342.09;5096513;28;19928;-82
2022/07/04 06:07:49;;;;;;;;;;;;;;;14.47;100.00;99340.88;5096467;28;19924;-81
2022/07/04 06:10:17;;;;;;;;;;;;;;;14.44;100.00;99344.56;5096235;28;20292;-82
2022/07/04 06:12:44;;;;;;;;;;;;;;;14.60;100.00;99344.50;5096091;28;19924;-82
2022/07/04 06:15:12;;;;;;;;;;;;;;;14.46;100.00;99336.50;5078273;28;19924;-82
2022/07/04 06:17:39;;;;;;;;;;;;;;;14.57;100.00;99328.53;5072395;28;20674;-82
2022/07/04 06:20:06;;;;;;;;;;;;;;;14.27;100.00;99329.75;5077772;28;20026;-81
2022/07/04 06:22:41;;;;;;;;;;;;;;;14.29;100.00;99330.13;5077844;28;19924;-82
2022/07/04 06:25:11;;;;;;;;;;;;;;;14.48;100.00;99326.38;5078273;28;19924;-81
2022/07/04 06:27:39;;;;;;;;;;;;;;;14.34;100.00;99325.97;5077942;28;19931;-81
2022/07/04 06:30:07;;;;;;;;;;;;;;;14.37;100.00;99317.44;5078068;28;19924;-81
2022/07/04 06:32:41;;;;;;;;;;;;;;;14.11;100.00;99303.69;5077994;28;20046;-81
2022/07/04 06:37:54;;;;;;;;;;;;;;;13.74;100.00;99324.69;5095430;28;19931;-81
2022/07/04 06:40:22;;;;;;;;;;;;;;;13.69;100.00;99338.47;5077968;28;19924;-81
2022/07/04 06:42:50;;;;;;;;;;;;;;;13.67;100.00;99340.91;5077600;28;20408;-81
2022/07/04 06:45:18;;;;;;;;;;;;;;;13.59;100.00;99345.09;5077389;28;19924;-81
2022/07/04 06:47:45;;;;;;;;;;;;;;;13.61;100.00;99348.28;5077531;28;19924;-81
2022/07/04 06:50:12;;;;;;;;;;;;;;;13.65;100.00;99343.34;5077416;28;19924;-81
2022/07/04 06:52:55;;;;;;;;;;;;;;;13.65;100.00;99343.34;5076784;28;19924;-81
2022/07/04 06:55:23;;;;;;;;;;;;;;;13.70;100.00;99338.03;5077406;28;19928;-81
2022/07/04 06:57:50;;;;;;;;;;;;;;;13.86;100.00;99337.22;5077543;28;19931;-81
2022/07/04 07:00:17;;;;;;;;;;;;;;;13.81;100.00;99329.34;5094218;28;19931;-81
2022/07/04 07:02:44;;;;;;;;;;;;;;;14.08;100.00;99324.22;5095425;28;20302;-81
2022/07/04 07:05:11;;;;;;;;;;;;;;;14.07;100.00;99323.44;5095259;28;19924;-81
2022/07/04 07:07:39;;;;;;;;;;;;;;;14.24;100.00;99318.59;5095028;28;19924;-81
2022/07/04 07:10:06;;;;;;;;;;;;;;;14.32;100.00;99325.63;5095035;28;19967;-86
2022/07/04 07:12:34;;;;;;;;;;;;;;;14.40;100.00;99324.19;5060565;28;20424;-81
2022/07/04 07:15:01;;;;;;;;;;;;;;;14.41;100.00;99312.50;5076931;28;19924;-80
2022/07/04 07:17:28;;;;;;;;;;;;;;;14.19;100.00;99296.66;5094990;28;19924;-80
2022/07/04 07:19:55;;;;;;;;;;;;;;;14.27;100.00;99296.03;5094810;28;19924;-80
2022/07/04 07:22:23;;;;;;;;;;;;;;;14.14;100.00;99297.16;5094566;28;19950;-79
2022/07/04 07:24:50;;;;;;;;;;;;;;;14.41;100.00;99283.59;5076593;28;19924;-79
2022/07/04 07:27:17;;;;;;;;;;;;;;;14.31;100.00;99279.06;5076548;28;19967;-79
2022/07/04 07:29:45;;;;;;;;;;;;;;;14.39;100.00;99280.44;5094502;28;19924;-79
2022/07/04 07:32:12;;;;;;;;;;;;;;;14.36;100.00;99272.91;5094507;28;20426;-79
2022/07/04 07:34:40;;;;;;;;;;;;;;;14.32;100.00;99270.19;5076183;28;19966;-82
2022/07/04 07:38:55;;;;;;;;;;;;;;;14.43;100.00;99250.22;4981268;28;19948;-81
2022/07/04 07:41:23;;;;;;;;;;;;;;;14.46;100.00;99266.19;5034259;28;20603;-81
2022/07/04 07:43:50;;;;;;;;;;;;;;;14.38;100.00;99270.44;5076165;28;19924;-81
2022/07/04 07:46:17;;;;;;;;;;;;;;;14.30;100.00;99264.22;5110035;28;20501;-80
2022/07/04 07:48:44;;;;;;;;;;;;;;;14.56;100.00;99261.50;5092759;28;19924;-81
2022/07/04 07:51:13;;;;;;;;;;;;;;;14.46;100.00;99257.78;5094500;28;19984;-80
2022/07/04 07:53:41;;;;;;;;;;;;;;;14.52;100.00;99256.75;5095063;28;19924;-81
2022/07/04 07:56:20;;;;;;;;;;;;;;;14.56;100.00;99247.44;5094461;28;19962;-80
2022/07/04 07:58:47;;;;;;;;;;;;;;;14.78;100.00;99237.94;5094328;28;20382;-82
2022/07/04 08:01:15;;;;;;;;;;;;;;;14.83;100.00;99231.75;5059484;28;19952;-81
2022/07/04 08:06:28;;;;;;;;;;;;;;;15.42;100.00;99220.63;5072688;28;20007;-80
2022/07/04 08:08:55;;;;;;;;;;;;;;;15.28;100.00;99206.22;5054012;28;20400;-82
2022/07/04 08:11:23;;;;;;;;;;;;;;;15.42;100.00;99209.38;5058177;28;19928;-81
2022/07/04 08:13:50;;;;;;;;;;;;;;;15.30;100.00;99198.88;5072409;28;19924;-78
2022/07/04 08:16:17;;;;;;;;;;;;;;;15.41;100.00;99205.00;5091088;28;19931;-79
2022/07/04 08:18:45;;;;;;;;;;;;;;;15.70;100.00;99199.97;5069533;28;20062;-80
2022/07/04 08:21:13;;;;;;;;;;;;;;;15.91;100.00;99185.16;5055390;28;19924;-78
2022/07/04 08:23:40;;;;;;;;;;;;;;;16.12;100.00;99198.47;5089600;28;19924;-78
2022/07/04 08:26:17;;;;;;;;;;;;;;;16.20;100.00;99199.81;5089731;28;20301;-78
2022/07/04 08:28:44;;;;;;;;;;;;;;;16.30;100.00;99188.59;5089181;28;19928;-79
2022/07/04 08:31:12;;;;;;;;;;;;;;;15.89;100.00;99196.09;5073392;28;19928;-80
2022/07/04 08:33:47;;;;;;;;;;;;;;;16.44;100.00;99190.91;5090528;28;19928;-79
2022/07/04 08:36:14;;;;;;;;;;;;;;;17.03;100.00;99204.72;5090175;28;19925;-80
2022/07/04 08:38:41;;;;;;;;;;;;;;;17.32;100.00;99197.47;5073089;28;20294;-80
2022/07/04 08:41:08;;;;;;;;;;;;;;;17.70;100.00;99197.13;5073093;28;20632;-81
2022/07/04 08:43:36;;;;;;;;;;;;;;;17.82;100.00;99193.38;5056319;28;19928;-79
2022/07/04 08:46:04;;;;;;;;;;;;;;;16.91;100.00;99172.53;5091208;28;19932;-80
2022/07/04 08:48:52;;;;;;;;;;;;;;;16.64;100.00;99194.97;5090412;28;19924;-80
2022/07/04 08:51:28;;;;;;;;;;;;;;;17.46;100.00;99225.16;5073304;28;19924;-81
2022/07/04 08:54:00;;;;;;;;;;;;;;;17.61;100.00;99220.50;5072655;28;19924;-80
2022/07/04 08:59:14;;;;;;;;;;;;;;;18.56;100.00;99241.81;5107208;28;20061;-80
2022/07/04 09:01:42;;;;;;;;;;;;;;;18.04;100.00;99204.56;5092879;28;20030;-80
2022/07/04 09:04:10;;;;;;;;;;;;;;;18.39;100.00;99253.94;5094008;28;20005;-80
2022/07/04 09:06:37;;;;;;;;;;;;;;;18.24;100.00;99231.09;5110603;28;20014;-80
2022/07/04 09:09:07;;;;;;;;;;;;;;;18.36;100.00;99249.19;5075079;28;19952;-81
2022/07/04 09:11:35;;;;;;;;;;;;;;;18.15;100.00;99242.41;5093855;28;20352;-82
2022/07/04 09:14:02;;;;;;;;;;;;;;;18.03;100.00;99249.00;5076195;28;19924;-81
2022/07/04 09:16:29;;;;;;;;;;;;;;;17.80;100.00;99264.50;5093106;28;20375;-80
2022/07/04 09:18:56;;;;;;;;;;;;;;;17.87;100.00;99277.56;5076069;28;19924;-81
2022/07/04 09:21:42;;;;;;;;;;;;;;;16.79;100.00;99248.81;5094369;28;20444;-81
2022/07/04 09:24:09;;;;;;;;;;;;;;;17.39;100.00;99273.44;5075547;28;19924;-81
2022/07/04 09:26:39;;;;;;;;;;;;;;;17.25;100.00;99278.88;5099421;28;19931;-82
2022/07/04 09:29:06;;;;;;;;;;;;;;;16.75;100.00;99282.03;5076258;28;19924;-81
2022/07/04 09:31:34;;;;;;;;;;;;;;;16.71;100.00;99282.16;5093492;28;19928;-81
2022/07/04 09:34:05;;;;;;;;;;;;;;;17.03;100.00;99295.03;5075380;28;19924;-79
2022/07/04 09:36:33;;;;;;;;;;;;;;;16.95;100.00;99311.47;5092138;28;20065;-78
2022/07/04 09:39:06;;;;;;;;;;;;;;;16.89;100.00;99323.81;5092543;28;19946;-79
2022/07/04 09:41:49;;;;;;;;;;;;;;;16.66;100.00;99344.03;5092350;28;20019;-78
2022/07/04 09:44:16;;;;;;;;;;;;;;;16.11;100.00;99342.69;5073003;28;20501;-78
2022/07/04 09:46:43;;;;;;;;;;;;;;;16.17;100.00;99354.97;5074982;28;20425;-81
2022/07/04 09:49:11;;;;;;;;;;;;;;;16.30;100.00;99354.94;5093606;28;19939;-79
2022/07/04 09:51:39;;;;;;;;;;;;;;;16.27;100.00;99355.88;5074498;28;19924;-80
2022/07/04 09:54:16;;;;;;;;;;;;;;;17.23;100.00;99349.13;5073997;28;20346;-79
2022/07/04 09:56:45;;;;;;;;;;;;;;;17.59;100.00;99350.16;5058530;28;19931;-79
2022/07/04 09:59:12;;;;;;;;;;;;;;;17.25;100.00;99335.34;5092172;28;19930;-80
2022/07/04 10:01:39;;;;;;;;;;;;;;;17.19;100.00;99335.13;5072834;28;19924;-80
2022/07/04 10:04:07;;;;;;;;;;;;;;;17.29;100.00;99341.63;5074894;28;19931;-81
2022/07/04 10:06:37;;;;;;;;;;;;;;;16.70;100.00;99327.75;5075192;28;20766;-80
2022/07/04 10:09:23;;;;;;;;;;;;;;;17.05;100.00;99332.09;5074539;28;19936;-80
2022/07/04 10:11:50;;;;;;;;;;;;;;;16.69;100.00;99338.22;5092600;28;20013;-80
2022/07/04 10:14:18;;;;;;;;;;;;;;;16.84;100.00;99341.34;5040852;28;19924;-78
2022/07/04 10:16:45;;;;;;;;;;;;;;;17.35;100.00;99342.59;5091964;28;20719;-78
2022/07/04 10:19:13;;;;;;;;;;;;;;;17.29;100.00;99347.28;5091590;28;19932;-77
2022/07/04 10:21:40;;;;;;;;;;;;;;;17.17;100.00;99351.78;5091375;28;19932;-77
2022/07/04 10:24:07;;;;;;;;;;;;;;;16.53;100.00;99341.25;5092022;28;20278;-77
2022/07/04 10:26:35;;;;;;;;;;;;;;;16.51;100.00;99354.25;5091571;28;19977;-77
2022/07/04 10:29:02;;;;;;;;;;;;;;;16.59;100.00;99364.00;5091096;28;20016;-79
2022/07/04 10:31:31;;;;;;;;;;;;;;;16.87;100.00;99366.63;5092200;28;19932;-80
2022/07/04 10:33:59;;;;;;;;;;;;;;;16.72;100.00;99359.88;5091787;28;20574;-79
2022/07/04 10:36:29;;;;;;;;;;;;;;;16.48;100.00;99366.44;5091290;28;19924;-79
2022/07/04 10:38:56;;;;;;;;;;;;;;;16.84;100.00;99366.75;5092067;28;19924;-79
2022/07/04 10:41:23;;;;;;;;;;;;;;;17.10;100.00;99373.84;5092129;28;20451;-79
2022/07/04 10:43:52;;;;;;;;;;;;;;;17.17;100.00;99384.84;5072924;28;20372;-79
2022/07/04 10:46:23;;;;;;;;;;;;;;;16.91;100.00;99377.75;5057058;28;19925;-79
2022/07/04 10:48:57;;;;;;;;;;;;;;;16.44;100.00;99383.47;5092125;28;20393;-80
2022/07/04 10:51:33;;;;;;;;;;;;;;;16.27;100.00;99385.63;5073355;28;19981;-79
2022/07/04 10:54:02;;;;;;;;;;;;;;;16.04;100.00;99380.34;5072312;28;19962;-79
2022/07/04 10:56:29;;;;;;;;;;;;;;;16.32;100.00;99381.44;5091449;28;19931;-80
2022/07/04 10:59:00;;;;;;;;;;;;;;;16.97;100.00;99381.56;5091706;28;20367;-80
2022/07/04 11:01:27;;;;;;;;;;;;;;;17.56;100.00;99387.00;5057121;28;20417;-80
2022/07/04 11:03:54;;;;;;;;;;;;;;;17.28;100.00;99369.06;5089752;28;19943;-80
2022/07/04 11:06:35;;;;;;;;;;;;;;;17.57;100.00;99361.13;5089603;28;19924;-79
2022/07/04 11:09:14;;;;;;;;;;;;;;;18.32;100.00;99367.34;5053994;28;20002;-79
2022/07/04 11:11:49;;;;;;;;;;;;;;;18.78;100.00;99366.16;5088329;28;19924;-79
2022/07/04 11:14:35;;;;;;;;;;;;;;;18.38;100.00;99366.28;5053359;28;19939;-79
2022/07/04 11:17:04;;;;;;;;;;;;;;;18.48;100.00;99376.34;5070285;28;20371;-78
2022/07/04 11:19:31;;;;;;;;;;;;;;;18.04;100.00;99362.88;5088373;28;19928;-79
2022/07/04 11:21:59;;;;;;;;;;;;;;;17.63;100.00;99379.03;5072734;28;19925;-79
2022/07/04 11:24:26;;;;;;;;;;;;;;;17.42;100.00;99384.69;5054965;28;19932;-80
2022/07/04 11:26:54;;;;;;;;;;;;;;;17.05;100.00;99394.19;5090467;28;19928;-79
2022/07/04 11:29:21;;;;;;;;;;;;;;;16.55;100.00;99400.03;5090532;28;19930;-78
2022/07/04 11:31:49;;;;;;;;;;;;;;;16.39;100.00;99402.97;5090086;28;19931;-78
2022/07/04 11:34:17;;;;;;;;;;;;;;;16.35;100.00;99408.72;5089784;28;19924;-75
2022/07/04 11:36:45;;;;;;;;;;;;;;;16.09;100.00;99413.63;5090447;28;20365;-78
2022/07/04 11:39:18;;;;;;;;;;;;;;;16.04;100.00;99422.63;5071959;28;19939;-77
2022/07/04 11:47:36;;;;;;;;;;;;;;;17.01;100.00;99413.28;5071520;28;19924;-79
2022/07/04 11:50:05;;;;;;;;;;;;;;;16.79;100.00;99387.88;5072120;28;19924;-79
2022/07/04 11:52:49;;;;;;;;;;;;;;;16.71;100.00;99413.94;5090540;28;20441;-77
2022/07/04 11:55:36;;;;;;;;;;;;;;;16.67;100.00;99413.31;5071936;28;19978;-78
2022/07/04 11:58:03;;;;;;;;;;;;;;;16.31;100.00;99422.16;5074334;28;20372;-78
2022/07/04 12:00:31;;;;;;;;;;;;;;;16.13;100.00;99427.56;5093812;28;19924;-77
2022/07/04 12:02:59;;;;;;;;;;;;;;;16.32;100.00;99425.75;5076105;28;20334;-78
2022/07/04 12:05:27;;;;;;;;;;;;;;;16.63;100.00;99419.06;5093765;28;19924;-78
2022/07/04 12:07:54;;;;;;;;;;;;;;;16.92;100.00;99425.28;5093858;28;20018;-77
2022/07/04 12:10:41;;;;;;;;;;;;;;;17.08;100.00;99427.16;5093525;28;19924;-77
2022/07/04 12:13:15;;;;;;;;;;;;;;;16.91;100.00;99411.63;5093948;28;19924;-77
2022/07/04 12:15:44;;;;;;;;;;;;;;;16.65;100.00;99421.41;5075775;28;20384;-77
2022/07/04 12:18:33;;;;;;;;;;;;;;;16.47;100.00;99426.88;5093873;28;19924;-77
2022/07/04 12:21:22;;;;;;;;;;;;;;;16.59;100.00;99437.34;5093823;28;20058;-78
2022/07/04 12:23:50;;;;;;;;;;;;;;;16.59;100.00;99417.59;5059160;28;19924;-78
2022/07/04 12:26:35;;;;;;;;;;;;;;;16.67;100.00;99430.22;5093441;28;20397;-78
2022/07/04 12:29:02;;;;;;;;;;;;;;;16.84;100.00;99429.59;5075629;28;19959;-77
2022/07/04 12:31:42;;;;;;;;;;;;;;;16.55;100.00;99429.03;5093676;28;19924;-78
2022/07/04 12:34:16;;;;;;;;;;;;;;;16.45;100.00;99426.56;5075422;28;19973;-78
2022/07/04 12:37:13;;;;;;;;;;;;;;;16.56;100.00;99436.25;5038448;28;19931;-78
2022/07/04 12:43:06;;;;;;;;;;;;;;;16.88;100.00;99424.63;5059188;28;19924;-78
2022/07/04 12:45:50;;;;;;;;;;;;;;;16.82;100.00;99420.03;5042832;28;19925;-78
2022/07/04 12:48:23;;;;;;;;;;;;;;;17.02;100.00;99423.34;5077333;28;19924;-79
2022/07/04 12:50:50;;;;;;;;;;;;;;;16.92;100.00;99427.34;5094274;28;20378;-78
2022/07/04 12:53:17;;;;;;;;;;;;;;;17.35;100.00;99430.16;5096866;28;19924;-79
2022/07/04 12:55:45;;;;;;;;;;;;;;;17.43;100.00;99429.47;5070001;28;19924;-79
2022/07/04 12:58:13;;;;;;;;;;;;;;;16.98;100.00;99433.97;5091097;28;19924;-79
2022/07/04 13:00:40;;;;;;;;;;;;;;;17.07;100.00;99437.63;5091974;28;19935;-79
2022/07/04 13:03:08;;;;;;;;;;;;;;;17.07;100.00;99436.88;5091436;28;19928;-79
2022/07/04 13:05:36;;;;;;;;;;;;;;;17.28;100.00;99436.09;5090936;28;19959;-79
2022/07/04 13:08:03;;;;;;;;;;;;;;;17.24;100.00;99424.91;5073557;28;20141;-79
2022/07/04 13:10:32;;;;;;;;;;;;;;;17.08;100.00;99415.84;5071399;28;19928;-79